sensor_id;sensor_type;location;lat;lon;timestamp;pressure;altitude;pressure_sealevel;temperature;humidity
12676;BME280;63820;65.654;21.944;2023-02-08T00:02:02;102211.25;;;-3.56;100.00
12676;BME280;63820;65.654;21.944;2023-02-08T00:04:46;102211.13;;;-3.59;100.00
12676;BME280;63820;65.654;21.944;2023-02-08T00:07:30;102216.34;;;-3.56;100.00
12676;BME280;63820;65.654;21.944;2023-02-08T00:10:14;102223.81;;;-2.98;100.00
12676;BME280;63820;65.654;21.944;2023-02-08T00:12:59;102232.63;;;-2.90;100.00
12676;BME280;63820;65.654;21.944;2023-02-08T00:15:44;102228.09;;;-2.97;100.00
12676;BME280;63820;65.654;21.944;2023-02-08T00:18:29;102226.06;;;-2.40;100.00
12676;BME280;63820;65.654;21.944;2023-02-08T00:21:15;102220.41;;;-2.33;100.00
12676;BME280;63820;65.654;21.944;2023-02-08T00:24:00;102220.09;;;-2.41;100.00
12676;BME280;63820;65.654;21.944;2023-02-08T00:26:44;102228.91;;;-2.55;100.00
12676;BME280;63820;65.654;21.944;2023-02-08T00:29:28;102226.53;;;-2.93;100.00
12676;BME280;63820;65.654;21.944;2023-02-08T00:32:13;102224.94;;;-3.12;100.00
12676;BME280;63820;65.654;21.944;2023-02-08T00:34:57;102226.56;;;-3.35;100.00
12676;BME280;63820;65.654;21.944;2023-02-08T00:37:41;102208.16;;;-3.49;100.00
12676;BME280;63820;65.654;21.944;2023-02-08T00:40:26;102211.03;;;-3.41;100.00
12676;BME280;63820;65.654;21.944;2023-02-08T00:43:11;102208.75;;;-3.14;100.00
12676;BME280;63820;65.654;21.944;2023-02-08T00:45:57;102208.16;;;-3.07;100.00
12676;BME280;63820;65.654;21.944;2023-02-08T00:48:41;102204.09;;;-2.81;100.00
12676;BME280;63820;65.654;21.944;2023-02-08T00:51:25;102202.00;;;-2.91;100.00
12676;BME280;63820;65.654;21.944;2023-02-08T00:54:14;102211.38;;;-3.11;100.00
12676;BME280;63820;65.654;21.944;2023-02-08T00:56:58;102219.75;;;-3.15;100.00
12676;BME280;63820;65.654;21.944;2023-02-08T00:59:42;102226.56;;;-3.14;100.00
12676;BME280;63820;65.654;21.944;2023-02-08T01:02:27;102219.50;;;-3.21;100.00
12676;BME280;63820;65.654;21.944;2023-02-08T01:05:11;102219.09;;;-3.31;100.00
12676;BME280;63820;65.654;21.944;2023-02-08T01:07:56;102228.00;;;-3.21;100.00
12676;BME280;63820;65.654;21.944;2023-02-08T01:10:41;102210.53;;;-3.33;100.00
12676;BME280;63820;65.654;21.944;2023-02-08T01:13:25;102215.19;;;-3.22;100.00
12676;BME280;63820;65.654;21.944;2023-02-08T01:16:15;102221.06;;;-3.03;100.00
12676;BME280;63820;65.654;21.944;2023-02-08T01:19:01;102212.69;;;-3.00;100.00
12676;BME280;63820;65.654;21.944;2023-02-08T01:21:45;102209.47;;;-2.96;100.00
12676;BME280;63820;65.654;21.944;2023-02-08T01:24:31;102186.66;;;-2.93;100.00
12676;BME280;63820;65.654;21.944;2023-02-08T01:27:16;102214.72;;;-2.48;100.00
12676;BME280;63820;65.654;21.944;2023-02-08T01:30:00;102211.94;;;-2.54;100.00
12676;BME280;63820;65.654;21.944;2023-02-08T01:32:44;102220.06;;;-2.42;100.00
12676;BME280;63820;65.654;21.944;2023-02-08T01:35:28;102214.63;;;-1.81;100.00
12676;BME280;63820;65.654;21.944;2023-02-08T01:38:13;102197.81;;;-1.51;100.00
12676;BME280;63820;65.654;21.944;2023-02-08T01:40:56;102203.38;;;-1.37;100.00
12676;BME280;63820;65.654;21.944;2023-02-08T01:46:48;102198.59;;;-1.28;100.00
12676;BME280;63820;65.654;21.944;2023-02-08T01:49:35;102194.56;;;-1.47;100.00
12676;BME280;63820;65.654;21.944;2023-02-08T01:52:23;102198.31;;;-1.61;100.00
12676;BME280;63820;65.654;21.944;2023-02-08T01:55:12;102201.91;;;-1.56;100.00
12676;BME280;63820;65.654;21.944;2023-02-08T01:58:00;102203.63;;;-1.55;100.00
12676;BME280;63820;65.654;21.944;2023-02-08T02:00:45;102194.84;;;-1.63;100.00
12676;BME280;63820;65.654;21.944;2023-02-08T02:03:30;102191.00;;;-1.76;100.00
12676;BME280;63820;65.654;21.944;2023-02-08T02:06:20;102203.22;;;-1.91;100.00
12676;BME280;63820;65.654;21.944;2023-02-08T02:09:12;102200.22;;;-2.03;100.00
12676;BME280;63820;65.654;21.944;2023-02-08T02:11:59;102199.00;;;-2.14;100.00
12676;BME280;63820;65.654;21.944;2023-02-08T02:14:44;102195.94;;;-2.28;100.00
12676;BME280;63820;65.654;21.944;2023-02-08T02:17:29;102203.47;;;-2.31;100.00
12676;BME280;63820;65.654;21.944;2023-02-08T02:29:36;102215.03;;;-1.69;100.00
12676;BME280;63820;65.654;21.944;2023-02-08T02:35:49;102222.69;;;-1.69;100.00
12676;BME280;63820;65.654;21.944;2023-02-08T02:42:11;102215.25;;;-1.63;100.00
12676;BME280;63820;65.654;21.944;2023-02-08T02:51:15;102215.44;;;-1.82;100.00
12676;BME280;63820;65.654;21.944;2023-02-08T02:54:12;102211.78;;;-1.65;100.00
12676;BME280;63820;65.654;21.944;2023-02-08T02:57:01;102198.72;;;-1.49;100.00
12676;BME280;63820;65.654;21.944;2023-02-08T02:59:48;102204.59;;;-1.26;100.00
12676;BME280;63820;65.654;21.944;2023-02-08T03:02:33;102208.59;;;-1.34;100.00
12676;BME280;63820;65.654;21.944;2023-02-08T03:05:17;102204.91;;;-1.42;100.00
12676;BME280;63820;65.654;21.944;2023-02-08T03:08:40;102215.78;;;-1.48;100.00
12676;BME280;63820;65.654;21.944;2023-02-08T03:11:32;102204.06;;;-1.67;100.00
12676;BME280;63820;65.654;21.944;2023-02-08T03:14:33;102211.13;;;-1.83;100.00
12676;BME280;63820;65.654;21.944;2023-02-08T03:20:12;102182.34;;;-2.28;100.00
12676;BME280;63820;65.654;21.944;2023-02-08T03:23:35;102171.16;;;-2.32;100.00
12676;BME280;63820;65.654;21.944;2023-02-08T03:32:31;102148.88;;;-2.38;100.00
12676;BME280;63820;65.654;21.944;2023-02-08T03:35:22;102139.78;;;-2.53;100.00
12676;BME280;63820;65.654;21.944;2023-02-08T03:38:10;102142.06;;;-2.61;100.00
12676;BME280;63820;65.654;21.944;2023-02-08T03:40:58;102123.59;;;-2.78;100.00
12676;BME280;63820;65.654;21.944;2023-02-08T03:43:47;102129.16;;;-2.88;100.00
12676;BME280;63820;65.654;21.944;2023-02-08T03:46:41;102121.50;;;-3.10;100.00
12676;BME280;63820;65.654;21.944;2023-02-08T03:49:30;102150.66;;;-3.02;100.00
12676;BME280;63820;65.654;21.944;2023-02-08T03:52:17;102167.88;;;-2.74;100.00
12676;BME280;63820;65.654;21.944;2023-02-08T03:55:16;102166.78;;;-2.81;100.00
12676;BME280;63820;65.654;21.944;2023-02-08T03:58:23;102146.97;;;-2.66;100.00
12676;BME280;63820;65.654;21.944;2023-02-08T04:01:17;102133.72;;;-2.79;100.00
12676;BME280;63820;65.654;21.944;2023-02-08T04:04:05;102146.38;;;-3.03;100.00
12676;BME280;63820;65.654;21.944;2023-02-08T04:06:49;102155.56;;;-3.29;100.00
12676;BME280;63820;65.654;21.944;2023-02-08T04:09:34;102145.81;;;-3.39;100.00
12676;BME280;63820;65.654;21.944;2023-02-08T04:12:18;102111.38;;;-3.31;100.00
12676;BME280;63820;65.654;21.944;2023-02-08T04:15:02;102088.88;;;-3.20;100.00
12676;BME280;63820;65.654;21.944;2023-02-08T04:17:46;102079.03;;;-3.34;100.00
12676;BME280;63820;65.654;21.944;2023-02-08T04:20:31;102091.06;;;-3.30;100.00
12676;BME280;63820;65.654;21.944;2023-02-08T04:23:15;102112.44;;;-3.47;100.00
12676;BME280;63820;65.654;21.944;2023-02-08T04:25:58;102120.13;;;-3.66;100.00
12676;BME280;63820;65.654;21.944;2023-02-08T04:28:43;102114.47;;;-3.80;100.00
12676;BME280;63820;65.654;21.944;2023-02-08T04:31:27;102134.28;;;-3.92;100.00
12676;BME280;63820;65.654;21.944;2023-02-08T04:34:11;102140.38;;;-4.08;100.00
12676;BME280;63820;65.654;21.944;2023-02-08T04:36:55;102149.91;;;-4.23;100.00
12676;BME280;63820;65.654;21.944;2023-02-08T04:39:39;102149.19;;;-4.40;100.00
12676;BME280;63820;65.654;21.944;2023-02-08T04:42:23;102156.75;;;-4.59;100.00
12676;BME280;63820;65.654;21.944;2023-02-08T04:45:08;102156.03;;;-4.56;100.00
12676;BME280;63820;65.654;21.944;2023-02-08T04:47:52;102155.53;;;-4.30;100.00
12676;BME280;63820;65.654;21.944;2023-02-08T04:50:37;102162.31;;;-3.90;100.00
12676;BME280;63820;65.654;21.944;2023-02-08T04:53:21;102164.06;;;-3.89;100.00
12676;BME280;63820;65.654;21.944;2023-02-08T04:56:06;102165.91;;;-3.85;100.00
12676;BME280;63820;65.654;21.944;2023-02-08T04:58:50;102167.28;;;-3.93;100.00
12676;BME280;63820;65.654;21.944;2023-02-08T05:01:34;102148.94;;;-4.06;100.00
12676;BME280;63820;65.654;21.944;2023-02-08T05:04:18;102126.47;;;-4.16;100.00
12676;BME280;63820;65.654;21.944;2023-02-08T05:07:03;102135.03;;;-3.95;100.00
12676;BME280;63820;65.654;21.944;2023-02-08T05:09:47;102112.75;;;-3.60;100.00
12676;BME280;63820;65.654;21.944;2023-02-08T05:12:32;102094.41;;;-3.08;100.00
12676;BME280;63820;65.654;21.944;2023-02-08T05:15:15;102068.34;;;-3.03;100.00
12676;BME280;63820;65.654;21.944;2023-02-08T05:17:59;102058.09;;;-3.04;100.00
12676;BME280;63820;65.654;21.944;2023-02-08T05:20:43;102041.72;;;-2.88;100.00
12676;BME280;63820;65.654;21.944;2023-02-08T05:23:28;102042.88;;;-3.03;100.00
12676;BME280;63820;65.654;21.944;2023-02-08T05:26:12;102043.97;;;-2.96;100.00
12676;BME280;63820;65.654;21.944;2023-02-08T05:28:57;102052.53;;;-2.94;100.00
12676;BME280;63820;65.654;21.944;2023-02-08T05:31:41;102067.78;;;-2.72;100.00
12676;BME280;63820;65.654;21.944;2023-02-08T05:34:26;102067.97;;;-2.67;100.00
12676;BME280;63820;65.654;21.944;2023-02-08T05:37:10;102067.63;;;-2.76;100.00
12676;BME280;63820;65.654;21.944;2023-02-08T05:39:55;102069.59;;;-2.69;100.00
12676;BME280;63820;65.654;21.944;2023-02-08T05:42:39;102046.50;;;-2.74;100.00
12676;BME280;63820;65.654;21.944;2023-02-08T05:45:25;102026.59;;;-2.84;100.00
12676;BME280;63820;65.654;21.944;2023-02-08T05:48:09;102030.66;;;-2.89;100.00
12676;BME280;63820;65.654;21.944;2023-02-08T05:50:53;102038.00;;;-2.97;100.00
12676;BME280;63820;65.654;21.944;2023-02-08T05:53:37;102044.72;;;-2.99;100.00
12676;BME280;63820;65.654;21.944;2023-02-08T05:56:22;102038.38;;;-3.10;100.00
12676;BME280;63820;65.654;21.944;2023-02-08T05:59:06;102053.16;;;-3.23;100.00
12676;BME280;63820;65.654;21.944;2023-02-08T06:01:50;102051.19;;;-3.31;100.00
12676;BME280;63820;65.654;21.944;2023-02-08T06:04:34;102052.44;;;-3.42;100.00
12676;BME280;63820;65.654;21.944;2023-02-08T06:07:19;102038.56;;;-3.50;100.00
12676;BME280;63820;65.654;21.944;2023-02-08T06:10:03;102047.63;;;-3.56;100.00
12676;BME280;63820;65.654;21.944;2023-02-08T06:12:50;102039.22;;;-3.54;100.00
12676;BME280;63820;65.654;21.944;2023-02-08T06:15:34;102031.31;;;-3.62;100.00
12676;BME280;63820;65.654;21.944;2023-02-08T06:18:18;102029.69;;;-3.80;100.00
12676;BME280;63820;65.654;21.944;2023-02-08T06:21:02;102052.09;;;-3.92;100.00
12676;BME280;63820;65.654;21.944;2023-02-08T06:23:47;102043.53;;;-3.74;100.00
12676;BME280;63820;65.654;21.944;2023-02-08T06:26:32;102048.13;;;-3.65;100.00
12676;BME280;63820;65.654;21.944;2023-02-08T06:29:17;102046.25;;;-3.69;100.00
12676;BME280;63820;65.654;21.944;2023-02-08T06:32:01;102050.41;;;-3.71;100.00
12676;BME280;63820;65.654;21.944;2023-02-08T06:34:45;102047.50;;;-3.59;100.00
12676;BME280;63820;65.654;21.944;2023-02-08T06:37:31;102035.16;;;-3.71;100.00
12676;BME280;63820;65.654;21.944;2023-02-08T06:40:15;102037.81;;;-3.68;100.00
12676;BME280;63820;65.654;21.944;2023-02-08T06:42:59;102033.34;;;-3.74;100.00
12676;BME280;63820;65.654;21.944;2023-02-08T06:45:45;102020.72;;;-3.72;100.00
12676;BME280;63820;65.654;21.944;2023-02-08T06:48:30;102024.00;;;-3.75;100.00
12676;BME280;63820;65.654;21.944;2023-02-08T06:51:14;102020.41;;;-3.80;100.00
12676;BME280;63820;65.654;21.944;2023-02-08T06:53:58;102015.44;;;-3.77;100.00
12676;BME280;63820;65.654;21.944;2023-02-08T06:56:42;102012.28;;;-3.71;100.00
12676;BME280;63820;65.654;21.944;2023-02-08T06:59:27;101998.88;;;-3.67;100.00
12676;BME280;63820;65.654;21.944;2023-02-08T07:02:16;101980.91;;;-3.72;100.00
12676;BME280;63820;65.654;21.944;2023-02-08T07:05:01;101976.00;;;-3.67;100.00
12676;BME280;63820;65.654;21.944;2023-02-08T07:07:45;101965.00;;;-3.66;100.00
12676;BME280;63820;65.654;21.944;2023-02-08T07:10:31;101955.19;;;-3.57;100.00
12676;BME280;63820;65.654;21.944;2023-02-08T07:13:15;101944.44;;;-3.50;100.00
12676;BME280;63820;65.654;21.944;2023-02-08T07:15:59;101941.53;;;-3.59;100.00
12676;BME280;63820;65.654;21.944;2023-02-08T07:18:44;101950.56;;;-3.45;100.00
12676;BME280;63820;65.654;21.944;2023-02-08T07:21:29;101950.69;;;-3.42;100.00
12676;BME280;63820;65.654;21.944;2023-02-08T07:24:13;101941.19;;;-3.46;100.00
12676;BME280;63820;65.654;21.944;2023-02-08T07:26:57;101950.34;;;-3.51;100.00
12676;BME280;63820;65.654;21.944;2023-02-08T07:29:41;101956.75;;;-3.38;100.00
12676;BME280;63820;65.654;21.944;2023-02-08T07:32:25;101948.53;;;-3.31;100.00
12676;BME280;63820;65.654;21.944;2023-02-08T07:35:10;101938.97;;;-3.14;100.00
12676;BME280;63820;65.654;21.944;2023-02-08T07:37:54;101942.91;;;-2.99;100.00
12676;BME280;63820;65.654;21.944;2023-02-08T07:40:39;101939.44;;;-3.01;100.00
12676;BME280;63820;65.654;21.944;2023-02-08T07:43:23;101944.19;;;-2.86;100.00
12676;BME280;63820;65.654;21.944;2023-02-08T07:46:12;101946.59;;;-2.90;100.00
12676;BME280;63820;65.654;21.944;2023-02-08T07:48:57;101943.53;;;-2.80;100.00
12676;BME280;63820;65.654;21.944;2023-02-08T07:51:41;101941.47;;;-2.67;100.00
12676;BME280;63820;65.654;21.944;2023-02-08T07:54:26;101929.22;;;-2.53;100.00
12676;BME280;63820;65.654;21.944;2023-02-08T07:57:10;101925.69;;;-2.56;100.00
12676;BME280;63820;65.654;21.944;2023-02-08T07:59:55;101902.34;;;-2.69;100.00
12676;BME280;63820;65.654;21.944;2023-02-08T08:02:39;101931.19;;;-2.70;100.00
12676;BME280;63820;65.654;21.944;2023-02-08T08:05:23;101915.84;;;-2.71;100.00
12676;BME280;63820;65.654;21.944;2023-02-08T08:08:09;101941.47;;;-2.67;100.00
12676;BME280;63820;65.654;21.944;2023-02-08T08:10:53;101900.63;;;-2.70;100.00
12676;BME280;63820;65.654;21.944;2023-02-08T08:13:38;101905.16;;;-2.61;100.00
12676;BME280;63820;65.654;21.944;2023-02-08T08:16:22;101931.44;;;-2.37;100.00
12676;BME280;63820;65.654;21.944;2023-02-08T08:19:05;101909.06;;;-2.20;100.00
12676;BME280;63820;65.654;21.944;2023-02-08T08:21:50;101909.78;;;-1.95;100.00
12676;BME280;63820;65.654;21.944;2023-02-08T08:24:34;101897.97;;;-1.93;100.00
12676;BME280;63820;65.654;21.944;2023-02-08T08:27:19;101890.44;;;-1.89;100.00
12676;BME280;63820;65.654;21.944;2023-02-08T08:30:09;101886.31;;;-1.57;100.00
12676;BME280;63820;65.654;21.944;2023-02-08T08:32:53;101889.22;;;-1.45;100.00
12676;BME280;63820;65.654;21.944;2023-02-08T08:35:38;101862.59;;;-1.53;100.00
12676;BME280;63820;65.654;21.944;2023-02-08T08:38:22;101837.81;;;-1.57;100.00
12676;BME280;63820;65.654;21.944;2023-02-08T08:41:10;101850.88;;;-1.46;100.00
12676;BME280;63820;65.654;21.944;2023-02-08T08:43:55;101844.31;;;-1.38;100.00
12676;BME280;63820;65.654;21.944;2023-02-08T08:46:40;101829.69;;;-1.12;100.00
12676;BME280;63820;65.654;21.944;2023-02-08T08:49:26;101810.44;;;-0.98;100.00
12676;BME280;63820;65.654;21.944;2023-02-08T08:52:11;101793.13;;;-1.11;100.00
12676;BME280;63820;65.654;21.944;2023-02-08T08:54:56;101768.34;;;-1.15;100.00
12676;BME280;63820;65.654;21.944;2023-02-08T08:57:39;101791.00;;;-1.27;100.00
12676;BME280;63820;65.654;21.944;2023-02-08T09:00:24;101799.44;;;-1.30;100.00
12676;BME280;63820;65.654;21.944;2023-02-08T09:03:08;101792.56;;;-1.33;100.00
12676;BME280;63820;65.654;21.944;2023-02-08T09:05:52;101779.34;;;-1.18;100.00
12676;BME280;63820;65.654;21.944;2023-02-08T09:08:37;101766.81;;;-1.09;100.00
12676;BME280;63820;65.654;21.944;2023-02-08T09:11:22;101749.22;;;-1.31;100.00
12676;BME280;63820;65.654;21.944;2023-02-08T09:14:07;101767.81;;;-1.01;100.00
12676;BME280;63820;65.654;21.944;2023-02-08T09:16:51;101740.59;;;-1.00;100.00
12676;BME280;63820;65.654;21.944;2023-02-08T09:19:36;101741.91;;;-0.81;100.00
12676;BME280;63820;65.654;21.944;2023-02-08T09:22:20;101728.19;;;-0.85;100.00
12676;BME280;63820;65.654;21.944;2023-02-08T09:25:05;101703.38;;;-0.90;100.00
12676;BME280;63820;65.654;21.944;2023-02-08T09:27:50;101695.47;;;-0.63;100.00
12676;BME280;63820;65.654;21.944;2023-02-08T09:30:34;101687.06;;;-0.58;100.00
12676;BME280;63820;65.654;21.944;2023-02-08T09:33:19;101694.31;;;-0.39;100.00
12676;BME280;63820;65.654;21.944;2023-02-08T09:36:04;101704.22;;;-0.13;100.00
12676;BME280;63820;65.654;21.944;2023-02-08T09:38:49;101699.06;;;-0.15;100.00
12676;BME280;63820;65.654;21.944;2023-02-08T09:51:25;101715.63;;;0.04;100.00
12676;BME280;63820;65.654;21.944;2023-02-08T09:54:19;101683.13;;;-0.02;100.00
12676;BME280;63820;65.654;21.944;2023-02-08T09:57:10;101697.91;;;0.15;100.00
12676;BME280;63820;65.654;21.944;2023-02-08T10:00:09;101695.31;;;0.13;100.00
12676;BME280;63820;65.654;21.944;2023-02-08T10:02:56;101685.19;;;0.18;100.00
12676;BME280;63820;65.654;21.944;2023-02-08T10:05:42;101679.94;;;0.12;100.00
12676;BME280;63820;65.654;21.944;2023-02-08T10:08:27;101670.81;;;0.24;100.00
12676;BME280;63820;65.654;21.944;2023-02-08T10:24:16;101626.16;;;0.58;100.00
12676;BME280;63820;65.654;21.944;2023-02-08T10:27:21;101598.66;;;0.47;100.00
12676;BME280;63820;65.654;21.944;2023-02-08T10:33:20;101628.00;;;0.67;100.00
12676;BME280;63820;65.654;21.944;2023-02-08T10:36:17;101592.00;;;0.56;100.00
12676;BME280;63820;65.654;21.944;2023-02-08T10:39:03;101571.56;;;0.59;100.00
12676;BME280;63820;65.654;21.944;2023-02-08T10:41:53;101597.50;;;0.81;100.00
12676;BME280;63820;65.654;21.944;2023-02-08T10:44:53;101616.31;;;0.83;100.00
12676;BME280;63820;65.654;21.944;2023-02-08T10:47:53;101607.91;;;0.93;100.00
12676;BME280;63820;65.654;21.944;2023-02-08T10:50:40;101607.00;;;0.88;100.00
12676;BME280;63820;65.654;21.944;2023-02-08T10:53:25;101604.38;;;0.85;100.00
12676;BME280;63820;65.654;21.944;2023-02-08T10:56:56;101602.78;;;0.93;100.00
12676;BME280;63820;65.654;21.944;2023-02-08T10:59:50;101586.44;;;0.83;100.00
12676;BME280;63820;65.654;21.944;2023-02-08T11:02:39;101595.13;;;0.94;100.00
12676;BME280;63820;65.654;21.944;2023-02-08T11:08:11;101612.38;;;1.09;100.00
12676;BME280;63820;65.654;21.944;2023-02-08T11:13:47;101603.78;;;1.03;100.00
12676;BME280;63820;65.654;21.944;2023-02-08T11:16:35;101616.59;;;1.06;100.00
12676;BME280;63820;65.654;21.944;2023-02-08T11:22:19;101598.75;;;1.12;100.00
12676;BME280;63820;65.654;21.944;2023-02-08T11:25:06;101598.66;;;1.04;100.00
12676;BME280;63820;65.654;21.944;2023-02-08T11:27:50;101604.06;;;1.25;100.00
12676;BME280;63820;65.654;21.944;2023-02-08T11:30:35;101604.03;;;1.24;100.00
12676;BME280;63820;65.654;21.944;2023-02-08T11:33:19;101606.47;;;1.13;100.00
12676;BME280;63820;65.654;21.944;2023-02-08T11:36:07;101581.72;;;1.15;100.00
12676;BME280;63820;65.654;21.944;2023-02-08T11:38:53;101584.34;;;1.20;100.00
12676;BME280;63820;65.654;21.944;2023-02-08T11:41:42;101577.41;;;1.11;100.00
12676;BME280;63820;65.654;21.944;2023-02-08T11:44:36;101569.84;;;1.22;100.00
12676;BME280;63820;65.654;21.944;2023-02-08T11:47:30;101567.28;;;1.22;100.00
12676;BME280;63820;65.654;21.944;2023-02-08T11:53:39;101536.38;;;1.10;100.00
12676;BME280;63820;65.654;21.944;2023-02-08T11:56:24;101533.00;;;1.14;100.00
12676;BME280;63820;65.654;21.944;2023-02-08T11:59:20;101526.16;;;1.11;100.00
12676;BME280;63820;65.654;21.944;2023-02-08T12:11:47;101547.00;;;1.42;100.00
12676;BME280;63820;65.654;21.944;2023-02-08T12:20:36;101545.28;;;1.41;100.00
12676;BME280;63820;65.654;21.944;2023-02-08T12:36:42;101518.91;;;1.49;100.00
12676;BME280;63820;65.654;21.944;2023-02-08T12:39:41;101511.38;;;1.66;100.00
12676;BME280;63820;65.654;21.944;2023-02-08T12:42:56;101510.91;;;2.07;100.00
12676;BME280;63820;65.654;21.944;2023-02-08T12:55:29;101496.06;;;1.72;100.00
12676;BME280;63820;65.654;21.944;2023-02-08T13:01:43;101473.84;;;1.74;100.00
12676;BME280;63820;65.654;21.944;2023-02-08T13:04:38;101474.75;;;1.79;100.00
12676;BME280;63820;65.654;21.944;2023-02-08T13:07:33;101456.78;;;1.79;100.00
12676;BME280;63820;65.654;21.944;2023-02-08T13:10:26;101446.59;;;1.88;100.00
12676;BME280;63820;65.654;21.944;2023-02-08T13:13:25;101439.53;;;1.63;100.00
12676;BME280;63820;65.654;21.944;2023-02-08T13:16:21;101440.31;;;1.56;100.00
12676;BME280;63820;65.654;21.944;2023-02-08T13:19:27;101433.56;;;1.62;100.00
12676;BME280;63820;65.654;21.944;2023-02-08T13:22:14;101430.16;;;1.65;100.00
12676;BME280;63820;65.654;21.944;2023-02-08T13:25:00;101430.16;;;1.65;100.00
12676;BME280;63820;65.654;21.944;2023-02-08T13:27:46;101419.78;;;1.53;100.00
12676;BME280;63820;65.654;21.944;2023-02-08T13:30:32;101420.81;;;1.73;100.00
12676;BME280;63820;65.654;21.944;2023-02-08T13:33:31;101421.69;;;1.74;100.00
12676;BME280;63820;65.654;21.944;2023-02-08T13:36:27;101412.25;;;1.73;100.00
12676;BME280;63820;65.654;21.944;2023-02-08T13:42:28;101397.78;;;1.81;100.00
12676;BME280;63820;65.654;21.944;2023-02-08T13:45:26;101380.56;;;1.64;100.00
12676;BME280;63820;65.654;21.944;2023-02-08T13:48:13;101387.47;;;1.72;100.00
12676;BME280;63820;65.654;21.944;2023-02-08T13:50:59;101376.28;;;1.62;100.00
12676;BME280;63820;65.654;21.944;2023-02-08T13:59:37;101369.38;;;1.55;100.00
12676;BME280;63820;65.654;21.944;2023-02-08T14:02:25;101371.94;;;1.56;100.00
12676;BME280;63820;65.654;21.944;2023-02-08T14:05:38;101363.38;;;1.51;100.00
12676;BME280;63820;65.654;21.944;2023-02-08T14:17:27;101323.19;;;1.52;100.00
12676;BME280;63820;65.654;21.944;2023-02-08T14:20:36;101293.22;;;1.43;100.00
12676;BME280;63820;65.654;21.944;2023-02-08T14:23:25;101281.28;;;1.48;100.00
12676;BME280;63820;65.654;21.944;2023-02-08T14:26:18;101259.03;;;1.44;100.00
12676;BME280;63820;65.654;21.944;2023-02-08T14:29:05;101227.38;;;1.35;100.00
12676;BME280;63820;65.654;21.944;2023-02-08T14:31:50;101219.69;;;1.39;100.00
12676;BME280;63820;65.654;21.944;2023-02-08T14:34:38;101239.38;;;1.40;100.00
12676;BME280;63820;65.654;21.944;2023-02-08T14:43:33;101225.72;;;1.43;100.00
12676;BME280;63820;65.654;21.944;2023-02-08T14:49:25;101207.72;;;1.34;100.00
12676;BME280;63820;65.654;21.944;2023-02-08T14:52:22;101187.16;;;1.26;100.00
12676;BME280;63820;65.654;21.944;2023-02-08T14:55:17;101193.22;;;1.39;100.00
12676;BME280;63820;65.654;21.944;2023-02-08T14:58:05;101153.72;;;1.09;100.00
12676;BME280;63820;65.654;21.944;2023-02-08T15:00:53;101164.94;;;1.26;100.00
12676;BME280;63820;65.654;21.944;2023-02-08T15:03:38;101177.81;;;1.36;100.00
12676;BME280;63820;65.654;21.944;2023-02-08T15:09:28;101157.19;;;1.14;100.00
12676;BME280;63820;65.654;21.944;2023-02-08T15:12:33;101153.84;;;1.27;100.00
12676;BME280;63820;65.654;21.944;2023-02-08T15:15:43;101161.56;;;1.32;100.00
12676;BME280;63820;65.654;21.944;2023-02-08T15:18:32;101125.66;;;1.29;100.00
12676;BME280;63820;65.654;21.944;2023-02-08T15:21:18;101105.16;;;1.30;100.00
12676;BME280;63820;65.654;21.944;2023-02-08T15:24:12;101116.31;;;1.39;100.00
12676;BME280;63820;65.654;21.944;2023-02-08T15:26:56;101103.50;;;1.43;100.00
12676;BME280;63820;65.654;21.944;2023-02-08T15:29:41;101088.97;;;1.38;100.00
12676;BME280;63820;65.654;21.944;2023-02-08T15:32:28;101090.69;;;1.42;100.00
12676;BME280;63820;65.654;21.944;2023-02-08T15:35:14;101082.16;;;1.49;100.00
12676;BME280;63820;65.654;21.944;2023-02-08T15:38:00;101077.03;;;1.49;100.00
12676;BME280;63820;65.654;21.944;2023-02-08T15:41:09;101089.88;;;1.49;100.00
12676;BME280;63820;65.654;21.944;2023-02-08T15:46:59;101100.97;;;1.52;100.00
12676;BME280;63820;65.654;21.944;2023-02-08T15:49:46;101095.84;;;1.48;100.00
12676;BME280;63820;65.654;21.944;2023-02-08T15:52:34;101081.31;;;1.51;100.00
12676;BME280;63820;65.654;21.944;2023-02-08T15:55:19;101086.47;;;1.54;100.00
12676;BME280;63820;65.654;21.944;2023-02-08T15:58:07;101070.22;;;1.51;100.00
12676;BME280;63820;65.654;21.944;2023-02-08T16:01:00;101074.50;;;1.58;100.00
12676;BME280;63820;65.654;21.944;2023-02-08T16:03:52;101055.66;;;1.47;100.00
12676;BME280;63820;65.654;21.944;2023-02-08T16:06:43;101064.22;;;1.50;100.00
12676;BME280;63820;65.654;21.944;2023-02-08T16:09:29;101059.94;;;1.45;100.00
12676;BME280;63820;65.654;21.944;2023-02-08T16:12:19;101041.13;;;1.40;100.00
12676;BME280;63820;65.654;21.944;2023-02-08T16:15:05;101012.00;;;1.22;100.00
12676;BME280;63820;65.654;21.944;2023-02-08T16:17:49;101011.19;;;1.36;100.00
12676;BME280;63820;65.654;21.944;2023-02-08T16:20:34;101007.81;;;1.41;100.00
12676;BME280;63820;65.654;21.944;2023-02-08T16:23:26;101012.09;;;1.47;100.00
12676;BME280;63820;65.654;21.944;2023-02-08T16:29:18;100975.34;;;1.45;100.00
12676;BME280;63820;65.654;21.944;2023-02-08T16:32:25;100950.53;;;1.35;100.00
12676;BME280;63820;65.654;21.944;2023-02-08T16:38:06;100923.19;;;1.21;100.00
12676;BME280;63820;65.654;21.944;2023-02-08T16:40:54;100947.09;;;1.26;100.00
12676;BME280;63820;65.654;21.944;2023-02-08T16:43:42;100916.31;;;1.11;100.00
12676;BME280;63820;65.654;21.944;2023-02-08T16:46:42;100926.56;;;1.14;100.00
12676;BME280;63820;65.654;21.944;2023-02-08T16:49:27;100916.31;;;1.14;100.00
12676;BME280;63820;65.654;21.944;2023-02-08T16:52:11;100917.16;;;1.09;100.00